sensor_id;sensor_type;location;lat;lon;timestamp;temperature;humidity
11142;DHT22;5625;50.122;19.864;2024-01-27T00:01:40;4.90;99.90
11142;DHT22;5625;50.122;19.864;2024-01-27T00:04:09;4.90;99.90
11142;DHT22;5625;50.122;19.864;2024-01-27T00:06:37;4.90;99.90
11142;DHT22;5625;50.122;19.864;2024-01-27T00:09:06;4.90;99.90
11142;DHT22;5625;50.122;19.864;2024-01-27T00:11:34;4.90;99.90
11142;DHT22;5625;50.122;19.864;2024-01-27T00:14:02;4.90;99.90
11142;DHT22;5625;50.122;19.864;2024-01-27T00:16:30;4.80;99.90
11142;DHT22;5625;50.122;19.864;2024-01-27T00:18:59;4.80;99.90
11142;DHT22;5625;50.122;19.864;2024-01-27T00:21:28;4.80;99.90
11142;DHT22;5625;50.122;19.864;2024-01-27T00:23:56;4.80;99.90
11142;DHT22;5625;50.122;19.864;2024-01-27T00:26:28;4.70;99.90
11142;DHT22;5625;50.122;19.864;2024-01-27T00:28:56;4.70;99.90
11142;DHT22;5625;50.122;19.864;2024-01-27T00:31:24;4.70;99.90
11142;DHT22;5625;50.122;19.864;2024-01-27T00:33:52;4.70;99.90
11142;DHT22;5625;50.122;19.864;2024-01-27T00:36:21;4.70;99.90
11142;DHT22;5625;50.122;19.864;2024-01-27T00:38:50;4.60;99.90
11142;DHT22;5625;50.122;19.864;2024-01-27T00:41:19;4.60;99.90
11142;DHT22;5625;50.122;19.864;2024-01-27T00:43:47;4.60;99.90
11142;DHT22;5625;50.122;19.864;2024-01-27T00:46:15;4.60;99.90
11142;DHT22;5625;50.122;19.864;2024-01-27T00:48:45;4.60;99.90
11142;DHT22;5625;50.122;19.864;2024-01-27T00:51:14;4.60;99.90
11142;DHT22;5625;50.122;19.864;2024-01-27T00:53:42;4.60;99.90
11142;DHT22;5625;50.122;19.864;2024-01-27T00:56:12;4.60;99.90
11142;DHT22;5625;50.122;19.864;2024-01-27T00:58:40;4.50;99.90
11142;DHT22;5625;50.122;19.864;2024-01-27T01:01:08;4.50;99.90
11142;DHT22;5625;50.122;19.864;2024-01-27T01:03:37;4.50;99.90
11142;DHT22;5625;50.122;19.864;2024-01-27T01:06:05;4.50;99.90
11142;DHT22;5625;50.122;19.864;2024-01-27T01:08:33;4.40;99.90
11142;DHT22;5625;50.122;19.864;2024-01-27T01:11:01;4.40;99.90
11142;DHT22;5625;50.122;19.864;2024-01-27T01:13:31;4.40;99.90
11142;DHT22;5625;50.122;19.864;2024-01-27T01:15:59;4.40;99.90
11142;DHT22;5625;50.122;19.864;2024-01-27T01:18:27;4.40;99.90
11142;DHT22;5625;50.122;19.864;2024-01-27T01:20:55;4.40;99.90
11142;DHT22;5625;50.122;19.864;2024-01-27T01:23:25;4.40;99.90
11142;DHT22;5625;50.122;19.864;2024-01-27T01:25:53;4.40;99.90
11142;DHT22;5625;50.122;19.864;2024-01-27T01:28:22;4.40;99.90
11142;DHT22;5625;50.122;19.864;2024-01-27T01:30:51;4.40;99.90
11142;DHT22;5625;50.122;19.864;2024-01-27T01:33:19;4.30;99.90
11142;DHT22;5625;50.122;19.864;2024-01-27T01:35:48;4.30;99.90
11142;DHT22;5625;50.122;19.864;2024-01-27T01:38:16;4.30;99.90
11142;DHT22;5625;50.122;19.864;2024-01-27T01:40:44;4.30;99.90
11142;DHT22;5625;50.122;19.864;2024-01-27T01:43:12;4.30;99.90
11142;DHT22;5625;50.122;19.864;2024-01-27T01:45:40;4.30;99.90
11142;DHT22;5625;50.122;19.864;2024-01-27T01:48:10;4.30;99.90
11142;DHT22;5625;50.122;19.864;2024-01-27T01:50:38;4.30;99.90
11142;DHT22;5625;50.122;19.864;2024-01-27T01:53:07;4.30;99.90
11142;DHT22;5625;50.122;19.864;2024-01-27T01:55:35;4.30;99.90
11142;DHT22;5625;50.122;19.864;2024-01-27T01:58:03;4.20;99.90
11142;DHT22;5625;50.122;19.864;2024-01-27T02:00:32;4.20;99.90
11142;DHT22;5625;50.122;19.864;2024-01-27T02:03:00;4.20;99.90
11142;DHT22;5625;50.122;19.864;2024-01-27T02:05:31;4.20;99.90
11142;DHT22;5625;50.122;19.864;2024-01-27T02:07:59;4.20;99.90
11142;DHT22;5625;50.122;19.864;2024-01-27T02:10:28;4.20;99.90
11142;DHT22;5625;50.122;19.864;2024-01-27T02:13:03;4.10;99.90
11142;DHT22;5625;50.122;19.864;2024-01-27T02:15:32;4.10;99.90
11142;DHT22;5625;50.122;19.864;2024-01-27T02:18:00;4.00;99.90
11142;DHT22;5625;50.122;19.864;2024-01-27T02:20:30;4.00;99.90
11142;DHT22;5625;50.122;19.864;2024-01-27T02:22:58;4.00;99.90
11142;DHT22;5625;50.122;19.864;2024-01-27T02:25:32;4.00;99.90
11142;DHT22;5625;50.122;19.864;2024-01-27T02:28:01;4.00;99.90
11142;DHT22;5625;50.122;19.864;2024-01-27T02:30:29;3.90;99.90
11142;DHT22;5625;50.122;19.864;2024-01-27T02:32:58;3.90;99.90
11142;DHT22;5625;50.122;19.864;2024-01-27T02:35:26;3.90;99.90
11142;DHT22;5625;50.122;19.864;2024-01-27T02:37:54;3.90;99.90
11142;DHT22;5625;50.122;19.864;2024-01-27T02:40:23;3.90;99.90
11142;DHT22;5625;50.122;19.864;2024-01-27T02:42:52;3.90;99.90
11142;DHT22;5625;50.122;19.864;2024-01-27T02:45:21;3.90;99.90
11142;DHT22;5625;50.122;19.864;2024-01-27T02:47:49;3.90;99.90
11142;DHT22;5625;50.122;19.864;2024-01-27T02:50:17;3.80;99.90
11142;DHT22;5625;50.122;19.864;2024-01-27T02:52:46;3.80;99.90
11142;DHT22;5625;50.122;19.864;2024-01-27T02:55:14;3.80;99.90
11142;DHT22;5625;50.122;19.864;2024-01-27T02:57:42;3.80;99.90
11142;DHT22;5625;50.122;19.864;2024-01-27T03:00:11;3.90;99.90
11142;DHT22;5625;50.122;19.864;2024-01-27T03:02:40;3.80;99.90
11142;DHT22;5625;50.122;19.864;2024-01-27T03:05:08;3.80;99.90
11142;DHT22;5625;50.122;19.864;2024-01-27T03:07:36;3.80;99.90
11142;DHT22;5625;50.122;19.864;2024-01-27T03:10:05;3.80;99.90
11142;DHT22;5625;50.122;19.864;2024-01-27T03:12:34;3.90;48.50
11142;DHT22;5625;50.122;19.864;2024-01-27T03:15:03;3.90;99.90
11142;DHT22;5625;50.122;19.864;2024-01-27T03:17:32;3.90;99.90
11142;DHT22;5625;50.122;19.864;2024-01-27T03:20:01;3.90;99.90
11142;DHT22;5625;50.122;19.864;2024-01-27T03:22:29;3.90;99.90
11142;DHT22;5625;50.122;19.864;2024-01-27T03:24:58;3.90;99.90
11142;DHT22;5625;50.122;19.864;2024-01-27T03:27:29;3.90;99.90
11142;DHT22;5625;50.122;19.864;2024-01-27T03:30:00;3.90;99.90
11142;DHT22;5625;50.122;19.864;2024-01-27T03:32:28;3.90;1.00
11142;DHT22;5625;50.122;19.864;2024-01-27T03:35:00;3.90;1.00
11142;DHT22;5625;50.122;19.864;2024-01-27T03:37:28;3.90;99.90
11142;DHT22;5625;50.122;19.864;2024-01-27T03:39:56;3.90;99.90
11142;DHT22;5625;50.122;19.864;2024-01-27T03:42:24;3.90;99.90
11142;DHT22;5625;50.122;19.864;2024-01-27T03:44:52;3.90;99.90
11142;DHT22;5625;50.122;19.864;2024-01-27T03:47:20;3.90;99.90
11142;DHT22;5625;50.122;19.864;2024-01-27T03:49:48;3.90;99.90
11142;DHT22;5625;50.122;19.864;2024-01-27T03:52:18;3.90;99.90
11142;DHT22;5625;50.122;19.864;2024-01-27T03:54:46;3.90;99.90
11142;DHT22;5625;50.122;19.864;2024-01-27T03:57:14;3.90;99.90
11142;DHT22;5625;50.122;19.864;2024-01-27T03:59:43;3.90;1.00
11142;DHT22;5625;50.122;19.864;2024-01-27T04:02:11;3.90;1.00
11142;DHT22;5625;50.122;19.864;2024-01-27T04:04:39;3.90;99.90
11142;DHT22;5625;50.122;19.864;2024-01-27T04:07:08;3.90;99.90
11142;DHT22;5625;50.122;19.864;2024-01-27T04:09:37;3.90;99.90
11142;DHT22;5625;50.122;19.864;2024-01-27T04:12:06;3.90;99.90
11142;DHT22;5625;50.122;19.864;2024-01-27T04:14:34;3.90;99.90
11142;DHT22;5625;50.122;19.864;2024-01-27T04:17:02;3.90;99.90
11142;DHT22;5625;50.122;19.864;2024-01-27T04:19:31;3.90;1.00
11142;DHT22;5625;50.122;19.864;2024-01-27T04:21:59;3.80;99.90
11142;DHT22;5625;50.122;19.864;2024-01-27T04:24:27;3.90;99.90
11142;DHT22;5625;50.122;19.864;2024-01-27T04:26:59;3.80;99.90
11142;DHT22;5625;50.122;19.864;2024-01-27T04:29:29;3.80;99.90
11142;DHT22;5625;50.122;19.864;2024-01-27T04:31:57;3.80;99.90
11142;DHT22;5625;50.122;19.864;2024-01-27T04:34:25;3.80;99.90
11142;DHT22;5625;50.122;19.864;2024-01-27T04:36:54;3.80;99.90
11142;DHT22;5625;50.122;19.864;2024-01-27T04:39:23;3.80;1.00
11142;DHT22;5625;50.122;19.864;2024-01-27T04:41:54;3.80;1.00
11142;DHT22;5625;50.122;19.864;2024-01-27T04:44:24;3.80;1.00
11142;DHT22;5625;50.122;19.864;2024-01-27T04:46:52;3.80;14.40
11142;DHT22;5625;50.122;19.864;2024-01-27T04:49:20;3.70;66.50
11142;DHT22;5625;50.122;19.864;2024-01-27T04:51:49;3.70;96.00
11142;DHT22;5625;50.122;19.864;2024-01-27T04:54:17;3.70;99.90
11142;DHT22;5625;50.122;19.864;2024-01-27T04:56:45;3.60;99.90
11142;DHT22;5625;50.122;19.864;2024-01-27T04:59:14;3.60;99.90
11142;DHT22;5625;50.122;19.864;2024-01-27T05:01:45;3.60;99.90
11142;DHT22;5625;50.122;19.864;2024-01-27T05:04:14;3.60;98.80
11142;DHT22;5625;50.122;19.864;2024-01-27T05:06:44;3.60;94.30
11142;DHT22;5625;50.122;19.864;2024-01-27T05:09:13;3.60;96.90
11142;DHT22;5625;50.122;19.864;2024-01-27T05:11:41;3.50;87.20
11142;DHT22;5625;50.122;19.864;2024-01-27T05:14:12;3.50;78.80
11142;DHT22;5625;50.122;19.864;2024-01-27T05:16:40;3.50;84.30
11142;DHT22;5625;50.122;19.864;2024-01-27T05:19:10;3.60;79.80
11142;DHT22;5625;50.122;19.864;2024-01-27T05:21:44;3.60;76.20
11142;DHT22;5625;50.122;19.864;2024-01-27T05:24:12;3.60;64.90
11142;DHT22;5625;50.122;19.864;2024-01-27T05:26:41;3.50;77.60
11142;DHT22;5625;50.122;19.864;2024-01-27T05:29:09;3.60;64.70
11142;DHT22;5625;50.122;19.864;2024-01-27T05:31:37;3.50;33.20
11142;DHT22;5625;50.122;19.864;2024-01-27T05:34:06;3.50;33.90
11142;DHT22;5625;50.122;19.864;2024-01-27T05:36:36;3.50;40.50
11142;DHT22;5625;50.122;19.864;2024-01-27T05:39:04;3.60;43.70
11142;DHT22;5625;50.122;19.864;2024-01-27T05:41:33;3.50;26.00
11142;DHT22;5625;50.122;19.864;2024-01-27T05:44:01;3.50;11.40
11142;DHT22;5625;50.122;19.864;2024-01-27T05:46:28;3.50;4.80
11142;DHT22;5625;50.122;19.864;2024-01-27T05:48:57;3.50;7.30
11142;DHT22;5625;50.122;19.864;2024-01-27T05:51:30;3.50;5.40
11142;DHT22;5625;50.122;19.864;2024-01-27T05:53:59;3.50;1.40
11142;DHT22;5625;50.122;19.864;2024-01-27T05:56:28;3.50;16.40
11142;DHT22;5625;50.122;19.864;2024-01-27T05:58:56;3.50;9.40
11142;DHT22;5625;50.122;19.864;2024-01-27T06:01:24;3.50;7.30
11142;DHT22;5625;50.122;19.864;2024-01-27T06:03:52;3.50;5.30
11142;DHT22;5625;50.122;19.864;2024-01-27T06:06:21;3.50;1.00
11142;DHT22;5625;50.122;19.864;2024-01-27T06:08:49;3.50;1.00
11142;DHT22;5625;50.122;19.864;2024-01-27T06:11:24;3.50;1.00
11142;DHT22;5625;50.122;19.864;2024-01-27T06:13:52;3.50;1.00
11142;DHT22;5625;50.122;19.864;2024-01-27T06:16:21;3.50;1.00
11142;DHT22;5625;50.122;19.864;2024-01-27T06:18:50;3.50;1.00
11142;DHT22;5625;50.122;19.864;2024-01-27T06:21:31;3.50;1.00
11142;DHT22;5625;50.122;19.864;2024-01-27T06:23:59;3.50;1.00
11142;DHT22;5625;50.122;19.864;2024-01-27T06:26:28;3.50;1.00
11142;DHT22;5625;50.122;19.864;2024-01-27T06:28:56;3.50;1.00
11142;DHT22;5625;50.122;19.864;2024-01-27T06:31:25;3.50;1.00
11142;DHT22;5625;50.122;19.864;2024-01-27T06:33:53;3.50;1.00
11142;DHT22;5625;50.122;19.864;2024-01-27T06:36:21;3.50;99.90
11142;DHT22;5625;50.122;19.864;2024-01-27T06:38:51;3.50;1.00
11142;DHT22;5625;50.122;19.864;2024-01-27T06:41:19;3.50;99.90
11142;DHT22;5625;50.122;19.864;2024-01-27T06:43:49;3.50;99.90
11142;DHT22;5625;50.122;19.864;2024-01-27T06:46:17;3.50;99.90
11142;DHT22;5625;50.122;19.864;2024-01-27T06:48:45;3.50;99.90
11142;DHT22;5625;50.122;19.864;2024-01-27T06:51:14;3.50;99.90
11142;DHT22;5625;50.122;19.864;2024-01-27T06:53:42;3.50;99.90
11142;DHT22;5625;50.122;19.864;2024-01-27T06:56:10;3.50;99.90
11142;DHT22;5625;50.122;19.864;2024-01-27T06:58:40;3.50;99.90
11142;DHT22;5625;50.122;19.864;2024-01-27T07:01:09;3.50;99.90
11142;DHT22;5625;50.122;19.864;2024-01-27T07:03:38;3.50;99.90
11142;DHT22;5625;50.122;19.864;2024-01-27T07:06:07;3.50;99.90
11142;DHT22;5625;50.122;19.864;2024-01-27T07:08:38;3.50;99.90
11142;DHT22;5625;50.122;19.864;2024-01-27T07:11:06;3.50;1.00
11142;DHT22;5625;50.122;19.864;2024-01-27T07:13:34;3.50;1.00
11142;DHT22;5625;50.122;19.864;2024-01-27T07:16:03;3.50;1.00
11142;DHT22;5625;50.122;19.864;2024-01-27T07:18:32;3.40;1.00
11142;DHT22;5625;50.122;19.864;2024-01-27T07:21:08;3.50;1.00
11142;DHT22;5625;50.122;19.864;2024-01-27T07:23:36;3.50;1.00
11142;DHT22;5625;50.122;19.864;2024-01-27T07:26:04;3.50;1.00
11142;DHT22;5625;50.122;19.864;2024-01-27T07:28:32;3.50;1.00
11142;DHT22;5625;50.122;19.864;2024-01-27T07:31:01;3.50;1.00
11142;DHT22;5625;50.122;19.864;2024-01-27T07:33:29;3.50;1.00
11142;DHT22;5625;50.122;19.864;2024-01-27T07:35:59;3.60;99.90
11142;DHT22;5625;50.122;19.864;2024-01-27T07:38:28;3.50;99.90
11142;DHT22;5625;50.122;19.864;2024-01-27T07:40:56;3.60;99.90
11142;DHT22;5625;50.122;19.864;2024-01-27T07:43:25;3.60;99.90
11142;DHT22;5625;50.122;19.864;2024-01-27T07:45:54;3.60;99.90
11142;DHT22;5625;50.122;19.864;2024-01-27T07:48:23;3.60;99.90
11142;DHT22;5625;50.122;19.864;2024-01-27T07:50:51;3.60;99.90
11142;DHT22;5625;50.122;19.864;2024-01-27T07:53:21;3.60;38.10
11142;DHT22;5625;50.122;19.864;2024-01-27T07:55:49;3.60;1.00
11142;DHT22;5625;50.122;19.864;2024-01-27T07:58:20;3.60;1.00
11142;DHT22;5625;50.122;19.864;2024-01-27T08:00:48;3.60;99.90
11142;DHT22;5625;50.122;19.864;2024-01-27T08:03:17;3.70;99.90
11142;DHT22;5625;50.122;19.864;2024-01-27T08:05:45;3.70;99.90
11142;DHT22;5625;50.122;19.864;2024-01-27T08:08:14;3.70;99.90
11142;DHT22;5625;50.122;19.864;2024-01-27T08:10:44;3.70;99.90
11142;DHT22;5625;50.122;19.864;2024-01-27T08:13:12;3.80;99.90
11142;DHT22;5625;50.122;19.864;2024-01-27T08:15:41;3.80;1.00
11142;DHT22;5625;50.122;19.864;2024-01-27T08:18:09;3.80;1.00
11142;DHT22;5625;50.122;19.864;2024-01-27T08:20:38;3.80;1.00
11142;DHT22;5625;50.122;19.864;2024-01-27T08:23:06;3.80;1.00
11142;DHT22;5625;50.122;19.864;2024-01-27T08:25:35;3.80;96.20
11142;DHT22;5625;50.122;19.864;2024-01-27T08:28:05;3.80;84.70
11142;DHT22;5625;50.122;19.864;2024-01-27T08:30:34;3.80;1.00
11142;DHT22;5625;50.122;19.864;2024-01-27T08:33:05;3.80;1.00
11142;DHT22;5625;50.122;19.864;2024-01-27T08:35:33;3.90;1.00
11142;DHT22;5625;50.122;19.864;2024-01-27T08:38:02;3.90;1.00
11142;DHT22;5625;50.122;19.864;2024-01-27T08:40:31;3.90;99.90
11142;DHT22;5625;50.122;19.864;2024-01-27T08:42:59;3.90;1.00
11142;DHT22;5625;50.122;19.864;2024-01-27T08:45:29;3.90;99.90
11142;DHT22;5625;50.122;19.864;2024-01-27T08:47:58;3.90;99.90
11142;DHT22;5625;50.122;19.864;2024-01-27T08:50:26;3.90;99.90
11142;DHT22;5625;50.122;19.864;2024-01-27T08:52:54;3.90;99.90
11142;DHT22;5625;50.122;19.864;2024-01-27T08:55:25;3.90;99.90
11142;DHT22;5625;50.122;19.864;2024-01-27T08:57:53;3.90;99.90
11142;DHT22;5625;50.122;19.864;2024-01-27T09:00:22;3.90;1.00
11142;DHT22;5625;50.122;19.864;2024-01-27T09:02:52;3.90;1.00
11142;DHT22;5625;50.122;19.864;2024-01-27T09:05:21;3.90;99.90
11142;DHT22;5625;50.122;19.864;2024-01-27T09:07:49;3.90;99.90
11142;DHT22;5625;50.122;19.864;2024-01-27T09:10:20;3.80;1.00
11142;DHT22;5625;50.122;19.864;2024-01-27T09:12:48;3.80;84.40
11142;DHT22;5625;50.122;19.864;2024-01-27T09:15:16;3.80;99.90
11142;DHT22;5625;50.122;19.864;2024-01-27T09:17:45;3.80;99.90
11142;DHT22;5625;50.122;19.864;2024-01-27T09:20:16;3.80;99.90
11142;DHT22;5625;50.122;19.864;2024-01-27T09:22:47;3.70;1.00
11142;DHT22;5625;50.122;19.864;2024-01-27T09:25:18;3.80;1.00
11142;DHT22;5625;50.122;19.864;2024-01-27T09:27:46;3.70;1.00
11142;DHT22;5625;50.122;19.864;2024-01-27T09:30:15;3.70;1.00
11142;DHT22;5625;50.122;19.864;2024-01-27T09:32:43;3.70;4.70
11142;DHT22;5625;50.122;19.864;2024-01-27T09:35:12;3.60;30.30
11142;DHT22;5625;50.122;19.864;2024-01-27T09:37:42;3.60;66.30
11142;DHT22;5625;50.122;19.864;2024-01-27T09:40:12;3.50;75.00
11142;DHT22;5625;50.122;19.864;2024-01-27T09:42:48;3.50;93.90
11142;DHT22;5625;50.122;19.864;2024-01-27T09:45:18;3.50;99.90
11142;DHT22;5625;50.122;19.864;2024-01-27T09:47:47;3.50;99.90
11142;DHT22;5625;50.122;19.864;2024-01-27T09:50:17;3.40;99.90
11142;DHT22;5625;50.122;19.864;2024-01-27T09:52:47;3.40;99.90
11142;DHT22;5625;50.122;19.864;2024-01-27T09:55:15;3.40;99.90
11142;DHT22;5625;50.122;19.864;2024-01-27T09:57:44;3.40;99.90
11142;DHT22;5625;50.122;19.864;2024-01-27T10:00:13;3.40;99.90
11142;DHT22;5625;50.122;19.864;2024-01-27T10:02:45;3.30;99.90
11142;DHT22;5625;50.122;19.864;2024-01-27T10:05:15;3.30;99.90
11142;DHT22;5625;50.122;19.864;2024-01-27T10:07:56;3.30;99.90
11142;DHT22;5625;50.122;19.864;2024-01-27T10:10:24;3.20;99.90
11142;DHT22;5625;50.122;19.864;2024-01-27T10:12:53;3.30;99.90
11142;DHT22;5625;50.122;19.864;2024-01-27T10:15:23;3.20;99.90
11142;DHT22;5625;50.122;19.864;2024-01-27T10:17:52;3.20;99.90
11142;DHT22;5625;50.122;19.864;2024-01-27T10:20:21;3.20;99.90
11142;DHT22;5625;50.122;19.864;2024-01-27T10:22:50;3.10;99.90
11142;DHT22;5625;50.122;19.864;2024-01-27T10:25:19;3.10;99.90
11142;DHT22;5625;50.122;19.864;2024-01-27T10:27:48;3.10;99.90
11142;DHT22;5625;50.122;19.864;2024-01-27T10:30:17;3.10;99.90
11142;DHT22;5625;50.122;19.864;2024-01-27T10:32:54;3.10;99.90
11142;DHT22;5625;50.122;19.864;2024-01-27T10:35:24;3.00;99.90
11142;DHT22;5625;50.122;19.864;2024-01-27T10:37:52;3.00;99.90
11142;DHT22;5625;50.122;19.864;2024-01-27T10:40:27;3.10;99.90
11142;DHT22;5625;50.122;19.864;2024-01-27T10:43:01;3.00;99.90
11142;DHT22;5625;50.122;19.864;2024-01-27T10:45:34;3.00;99.90
11142;DHT22;5625;50.122;19.864;2024-01-27T10:48:04;3.00;99.90
11142;DHT22;5625;50.122;19.864;2024-01-27T10:50:35;3.00;99.90
11142;DHT22;5625;50.122;19.864;2024-01-27T10:53:17;3.00;99.90
11142;DHT22;5625;50.122;19.864;2024-01-27T10:55:51;3.00;99.90
11142;DHT22;5625;50.122;19.864;2024-01-27T10:58:22;3.00;99.90
11142;DHT22;5625;50.122;19.864;2024-01-27T11:00:51;3.00;99.90
11142;DHT22;5625;50.122;19.864;2024-01-27T11:03:21;3.00;99.90
11142;DHT22;5625;50.122;19.864;2024-01-27T11:05:51;3.00;99.90
11142;DHT22;5625;50.122;19.864;2024-01-27T11:08:20;3.00;99.90
11142;DHT22;5625;50.122;19.864;2024-01-27T11:10:52;3.10;99.90
11142;DHT22;5625;50.122;19.864;2024-01-27T11:13:20;3.00;99.90
11142;DHT22;5625;50.122;19.864;2024-01-27T11:15:51;3.00;99.90
11142;DHT22;5625;50.122;19.864;2024-01-27T11:18:20;3.10;99.90
11142;DHT22;5625;50.122;19.864;2024-01-27T11:20:50;3.10;99.90
11142;DHT22;5625;50.122;19.864;2024-01-27T11:23:20;3.10;99.90
11142;DHT22;5625;50.122;19.864;2024-01-27T11:25:49;3.10;99.90
11142;DHT22;5625;50.122;19.864;2024-01-27T11:28:18;3.10;99.90
11142;DHT22;5625;50.122;19.864;2024-01-27T11:30:54;3.00;99.90
11142;DHT22;5625;50.122;19.864;2024-01-27T11:33:24;3.10;99.90
11142;DHT22;5625;50.122;19.864;2024-01-27T11:36:00;3.00;99.90
11142;DHT22;5625;50.122;19.864;2024-01-27T11:38:30;3.00;99.90
11142;DHT22;5625;50.122;19.864;2024-01-27T11:40:59;3.10;99.90
11142;DHT22;5625;50.122;19.864;2024-01-27T11:43:29;3.00;99.90
11142;DHT22;5625;50.122;19.864;2024-01-27T11:45:58;3.10;99.90
11142;DHT22;5625;50.122;19.864;2024-01-27T11:48:27;3.00;99.90
11142;DHT22;5625;50.122;19.864;2024-01-27T11:51:04;3.10;99.90
11142;DHT22;5625;50.122;19.864;2024-01-27T11:53:33;3.10;99.90
11142;DHT22;5625;50.122;19.864;2024-01-27T11:56:02;3.10;99.90
11142;DHT22;5625;50.122;19.864;2024-01-27T11:58:32;3.00;99.90
11142;DHT22;5625;50.122;19.864;2024-01-27T12:01:00;3.00;99.90
11142;DHT22;5625;50.122;19.864;2024-01-27T12:03:30;3.00;99.90
11142;DHT22;5625;50.122;19.864;2024-01-27T12:05:58;3.00;99.90
11142;DHT22;5625;50.122;19.864;2024-01-27T12:08:26;3.00;99.90
11142;DHT22;5625;50.122;19.864;2024-01-27T12:10:55;3.00;99.90
11142;DHT22;5625;50.122;19.864;2024-01-27T12:13:25;3.00;99.90
11142;DHT22;5625;50.122;19.864;2024-01-27T12:15:54;3.00;99.90
11142;DHT22;5625;50.122;19.864;2024-01-27T12:18:23;3.00;99.90
11142;DHT22;5625;50.122;19.864;2024-01-27T12:20:55;3.00;99.90
11142;DHT22;5625;50.122;19.864;2024-01-27T12:23:24;3.00;99.90
11142;DHT22;5625;50.122;19.864;2024-01-27T12:25:53;3.00;99.90
11142;DHT22;5625;50.122;19.864;2024-01-27T12:28:23;3.00;99.90
11142;DHT22;5625;50.122;19.864;2024-01-27T12:30:53;3.00;99.90
11142;DHT22;5625;50.122;19.864;2024-01-27T12:33:22;3.00;99.90
11142;DHT22;5625;50.122;19.864;2024-01-27T12:35:52;3.10;99.90
11142;DHT22;5625;50.122;19.864;2024-01-27T12:38:22;3.10;99.90
11142;DHT22;5625;50.122;19.864;2024-01-27T12:40:51;3.10;99.90
11142;DHT22;5625;50.122;19.864;2024-01-27T12:43:21;3.10;99.90
11142;DHT22;5625;50.122;19.864;2024-01-27T12:45:49;3.10;99.90
11142;DHT22;5625;50.122;19.864;2024-01-27T12:48:19;3.10;99.90
11142;DHT22;5625;50.122;19.864;2024-01-27T12:50:48;3.10;99.90
11142;DHT22;5625;50.122;19.864;2024-01-27T12:53:16;3.20;99.90
11142;DHT22;5625;50.122;19.864;2024-01-27T12:55:44;3.20;99.90
11142;DHT22;5625;50.122;19.864;2024-01-27T12:58:13;3.20;99.90
11142;DHT22;5625;50.122;19.864;2024-01-27T13:00:41;3.10;99.90
11142;DHT22;5625;50.122;19.864;2024-01-27T13:03:09;3.20;99.90
11142;DHT22;5625;50.122;19.864;2024-01-27T13:05:39;3.10;99.90
11142;DHT22;5625;50.122;19.864;2024-01-27T13:08:07;3.10;99.90
11142;DHT22;5625;50.122;19.864;2024-01-27T13:10:37;3.20;99.90
11142;DHT22;5625;50.122;19.864;2024-01-27T13:13:06;3.20;99.90
11142;DHT22;5625;50.122;19.864;2024-01-27T13:15:35;3.20;99.90
11142;DHT22;5625;50.122;19.864;2024-01-27T13:18:04;3.20;99.90
11142;DHT22;5625;50.122;19.864;2024-01-27T13:20:33;3.20;99.90
11142;DHT22;5625;50.122;19.864;2024-01-27T13:23:02;3.20;99.90
11142;DHT22;5625;50.122;19.864;2024-01-27T13:25:31;3.20;99.90
11142;DHT22;5625;50.122;19.864;2024-01-27T13:27:59;3.20;99.90
11142;DHT22;5625;50.122;19.864;2024-01-27T13:30:27;3.20;99.90
11142;DHT22;5625;50.122;19.864;2024-01-27T13:32:55;3.20;99.90
11142;DHT22;5625;50.122;19.864;2024-01-27T13:35:24;3.20;99.90
11142;DHT22;5625;50.122;19.864;2024-01-27T13:37:55;3.20;99.90
11142;DHT22;5625;50.122;19.864;2024-01-27T13:40:25;3.20;99.90
11142;DHT22;5625;50.122;19.864;2024-01-27T13:42:56;3.20;99.90
11142;DHT22;5625;50.122;19.864;2024-01-27T13:45:41;3.20;99.90
11142;DHT22;5625;50.122;19.864;2024-01-27T13:48:26;3.20;99.90
11142;DHT22;5625;50.122;19.864;2024-01-27T13:51:01;3.20;99.90
11142;DHT22;5625;50.122;19.864;2024-01-27T13:53:29;3.20;99.90
11142;DHT22;5625;50.122;19.864;2024-01-27T13:56:21;3.20;99.90
11142;DHT22;5625;50.122;19.864;2024-01-27T13:58:50;3.20;99.90
11142;DHT22;5625;50.122;19.864;2024-01-27T14:01:18;3.20;99.90
11142;DHT22;5625;50.122;19.864;2024-01-27T14:03:47;3.20;99.90
11142;DHT22;5625;50.122;19.864;2024-01-27T14:06:15;3.20;99.90
11142;DHT22;5625;50.122;19.864;2024-01-27T14:08:44;3.20;99.90
11142;DHT22;5625;50.122;19.864;2024-01-27T14:11:14;3.20;99.90
11142;DHT22;5625;50.122;19.864;2024-01-27T14:13:42;3.20;99.90
11142;DHT22;5625;50.122;19.864;2024-01-27T14:16:11;3.20;99.90
11142;DHT22;5625;50.122;19.864;2024-01-27T14:18:39;3.20;99.90
11142;DHT22;5625;50.122;19.864;2024-01-27T14:21:09;3.20;99.90
11142;DHT22;5625;50.122;19.864;2024-01-27T14:23:38;3.20;99.90
11142;DHT22;5625;50.122;19.864;2024-01-27T14:26:06;3.20;99.90
11142;DHT22;5625;50.122;19.864;2024-01-27T14:28:42;3.20;99.90
11142;DHT22;5625;50.122;19.864;2024-01-27T14:31:11;3.20;99.90
11142;DHT22;5625;50.122;19.864;2024-01-27T14:33:42;3.30;99.90
11142;DHT22;5625;50.122;19.864;2024-01-27T14:36:10;3.30;99.90
11142;DHT22;5625;50.122;19.864;2024-01-27T14:38:39;3.20;99.90
11142;DHT22;5625;50.122;19.864;2024-01-27T14:41:08;3.30;99.90
11142;DHT22;5625;50.122;19.864;2024-01-27T14:43:38;3.20;99.90
11142;DHT22;5625;50.122;19.864;2024-01-27T14:46:08;3.30;99.90
11142;DHT22;5625;50.122;19.864;2024-01-27T14:48:36;3.30;99.90
11142;DHT22;5625;50.122;19.864;2024-01-27T14:51:07;3.20;99.90
11142;DHT22;5625;50.122;19.864;2024-01-27T14:53:36;3.20;99.90
11142;DHT22;5625;50.122;19.864;2024-01-27T14:56:05;3.30;99.90
11142;DHT22;5625;50.122;19.864;2024-01-27T14:58:33;3.20;99.90
11142;DHT22;5625;50.122;19.864;2024-01-27T15:01:02;3.20;99.90
11142;DHT22;5625;50.122;19.864;2024-01-27T15:03:32;3.20;99.90
11142;DHT22;5625;50.122;19.864;2024-01-27T15:06:00;3.20;99.90
11142;DHT22;5625;50.122;19.864;2024-01-27T15:08:30;3.20;99.90
11142;DHT22;5625;50.122;19.864;2024-01-27T15:10:58;3.20;99.90
11142;DHT22;5625;50.122;19.864;2024-01-27T15:13:26;3.20;99.90
11142;DHT22;5625;50.122;19.864;2024-01-27T15:15:56;3.20;99.90
11142;DHT22;5625;50.122;19.864;2024-01-27T15:18:24;3.20;99.90
11142;DHT22;5625;50.122;19.864;2024-01-27T15:20:54;3.20;99.90
11142;DHT22;5625;50.122;19.864;2024-01-27T15:23:22;3.40;99.90
11142;DHT22;5625;50.122;19.864;2024-01-27T15:25:52;3.70;99.90
11142;DHT22;5625;50.122;19.864;2024-01-27T15:28:21;3.70;99.90
11142;DHT22;5625;50.122;19.864;2024-01-27T15:30:50;3.60;99.90
11142;DHT22;5625;50.122;19.864;2024-01-27T15:33:20;3.50;99.90
11142;DHT22;5625;50.122;19.864;2024-01-27T15:35:48;3.40;99.90
11142;DHT22;5625;50.122;19.864;2024-01-27T15:38:18;3.40;99.90
11142;DHT22;5625;50.122;19.864;2024-01-27T15:40:46;3.40;99.90
11142;DHT22;5625;50.122;19.864;2024-01-27T15:43:14;3.40;99.90
11142;DHT22;5625;50.122;19.864;2024-01-27T15:45:43;3.30;99.90
11142;DHT22;5625;50.122;19.864;2024-01-27T15:48:11;3.30;99.90
11142;DHT22;5625;50.122;19.864;2024-01-27T15:50:40;3.30;99.90
11142;DHT22;5625;50.122;19.864;2024-01-27T15:53:08;3.30;99.90
11142;DHT22;5625;50.122;19.864;2024-01-27T15:55:38;3.30;99.90
11142;DHT22;5625;50.122;19.864;2024-01-27T15:58:06;3.30;99.90
11142;DHT22;5625;50.122;19.864;2024-01-27T16:00:36;3.20;99.90